Time;durP1;ratioP1;P1;durP2;ratioP2;P2;SDS_P1;SDS_P2;PMS_P1;PMS_P2;Temp;Humidity;BMP_temperature;BMP_pressure;BME280_temperature;BME280_humidity;BME280_pressure;Samples;Min_cycle;Max_cycle;Signal;HPM_P1;HPM_P2
2023/02/26 00:02:16;;;;;;;0.57;0.20;;;;;;;2.50;64.40;101709.72;5076150;28;20033;-65
2023/02/26 00:04:41;;;;;;;2.20;0.50;;;;;;;2.45;64.47;101699.47;5060494;28;20028;-65
2023/02/26 00:07:07;;;;;;;2.70;0.57;;;;;;;2.57;64.32;101700.28;5060577;28;20056;-65
2023/02/26 00:09:33;;;;;;;0.73;0.30;;;;;;;2.72;64.07;101714.97;5077770;28;20028;-65
2023/02/26 00:11:59;;;;;;;1.25;0.40;;;;;;;2.72;63.80;101707.00;5078924;28;20028;-65
2023/02/26 00:14:25;;;;;;;1.98;0.50;;;;;;;2.46;63.80;101698.50;5078650;28;20090;-64
2023/02/26 00:17:09;;;;;;;1.45;0.68;;;;;;;2.63;64.40;101714.88;5080983;28;20028;-65
2023/02/26 00:19:35;;;;;;;0.82;0.40;;;;;;;2.67;64.12;101706.53;5078926;28;20055;-65
2023/02/26 00:22:01;;;;;;;2.97;0.40;;;;;;;2.47;64.28;101688.72;5079745;28;20033;-65
2023/02/26 00:24:26;;;;;;;1.35;0.32;;;;;;;2.68;63.90;101717.97;5078622;28;20028;-65
2023/02/26 00:26:52;;;;;;;1.75;0.40;;;;;;;2.53;64.65;101714.78;5079359;28;20089;-65
2023/02/26 00:29:18;;;;;;;0.95;0.32;;;;;;;2.31;64.55;101695.25;5078568;28;20029;-65
2023/02/26 00:31:43;;;;;;;0.95;0.30;;;;;;;2.22;64.68;101693.34;5078910;28;20054;-65
2023/02/26 00:34:12;;;;;;;0.50;0.20;;;;;;;2.45;64.27;101726.03;5079477;28;20113;-65
2023/02/26 00:37:07;;;;;;;1.75;0.30;;;;;;;2.41;64.71;101718.41;5079851;28;20032;-65
2023/02/26 00:39:45;;;;;;;1.58;0.30;;;;;;;2.43;64.01;101727.97;5079658;28;20028;-65
2023/02/26 00:42:12;;;;;;;2.25;0.47;;;;;;;2.35;64.43;101720.63;5079521;28;20028;-65
2023/02/26 00:44:38;;;;;;;2.65;0.47;;;;;;;2.52;63.88;101724.56;5081273;28;20032;-65
2023/02/26 00:47:19;;;;;;;2.50;0.40;;;;;;;2.42;63.89;101738.69;5100988;28;20043;-65
2023/02/26 00:49:59;;;;;;;2.65;0.47;;;;;;;2.33;64.08;101742.94;5101327;28;20053;-65
2023/02/26 00:52:41;;;;;;;0.80;0.30;;;;;;;2.47;63.98;101741.84;5101302;28;20169;-65
2023/02/26 00:55:07;;;;;;;1.38;0.30;;;;;;;2.53;63.47;101754.63;5099006;28;20094;-65
2023/02/26 00:57:32;;;;;;;1.10;0.28;;;;;;;2.39;63.67;101744.28;5098090;28;20551;-66
2023/02/26 00:59:58;;;;;;;1.17;0.20;;;;;;;2.45;64.36;101735.78;5099164;28;20016;-65
2023/02/26 01:02:23;;;;;;;1.90;0.40;;;;;;;2.28;64.36;101747.75;5097303;28;20035;-65
2023/02/26 01:04:49;;;;;;;1.48;0.43;;;;;;;2.30;64.05;101728.09;5097845;28;20121;-65
2023/02/26 01:07:21;;;;;;;1.15;0.30;;;;;;;2.45;64.26;101733.13;5096313;28;20034;-65
2023/02/26 01:09:46;;;;;;;1.58;0.40;;;;;;;2.51;64.12;101765.38;5096083;28;20023;-65
2023/02/26 01:12:12;;;;;;;1.83;0.70;;;;;;;2.50;63.82;101754.88;5097943;28;20149;-65
2023/02/26 01:14:39;;;;;;;1.70;0.40;;;;;;;2.43;64.28;101765.16;5097666;28;20024;-65
2023/02/26 01:17:27;;;;;;;3.58;0.40;;;;;;;2.21;65.75;101771.31;5096350;28;20028;-65
2023/02/26 01:20:15;;;;;;;2.17;0.50;;;;;;;2.48;64.90;101772.75;5097244;28;20044;-65
2023/02/26 01:22:40;;;;;;;1.75;0.35;;;;;;;2.47;64.41;101771.06;5094485;28;20038;-65
2023/02/26 01:25:17;;;;;;;2.88;0.30;;;;;;;2.47;64.57;101779.03;5097571;28;20072;-65
2023/02/26 01:27:43;;;;;;;4.07;0.30;;;;;;;2.40;64.81;101781.31;5096469;28;20036;-65
2023/02/26 01:30:09;;;;;;;0.93;0.35;;;;;;;2.45;64.27;101776.50;5097935;28;20031;-65
2023/02/26 01:32:52;;;;;;;1.75;0.32;;;;;;;2.44;64.13;101797.88;5097778;28;20043;-65
2023/02/26 01:35:46;;;;;;;2.10;0.38;;;;;;;2.30;64.83;101789.19;5098742;28;20028;-65
2023/02/26 01:38:37;;;;;;;0.75;0.28;;;;;;;2.16;65.92;101800.06;5097352;28;20482;-65
2023/02/26 01:41:06;;;;;;;1.73;0.32;;;;;;;2.23;65.57;101795.94;5101361;28;20046;-65
2023/02/26 01:43:37;;;;;;;1.02;0.25;;;;;;;2.17;65.43;101807.03;5097640;28;20034;-65
2023/02/26 01:46:17;;;;;;;2.85;0.50;;;;;;;2.32;64.78;101811.16;5097691;28;20460;-65
2023/02/26 01:48:53;;;;;;;1.02;0.25;;;;;;;2.35;65.52;101812.72;5096528;28;20119;-65
2023/02/26 01:51:41;;;;;;;4.57;0.30;;;;;;;2.22;65.51;101815.50;5098449;28;20065;-65
2023/02/26 01:54:06;;;;;;;3.58;0.60;;;;;;;2.22;66.05;101814.63;5098080;28;20035;-65
2023/02/26 01:56:33;;;;;;;1.13;0.30;;;;;;;2.07;66.21;101816.69;5080966;28;20028;-65
2023/02/26 01:58:59;;;;;;;3.22;0.40;;;;;;;2.10;66.17;101819.09;5096293;28;20016;-65
2023/02/26 02:01:25;;;;;;;2.33;0.40;;;;;;;2.05;66.71;101831.88;5094030;28;20068;-65
2023/02/26 02:03:50;;;;;;;1.42;0.30;;;;;;;1.97;66.90;101829.81;5082166;28;20055;-65
2023/02/26 02:06:21;;;;;;;2.63;0.40;;;;;;;2.13;66.47;101836.63;5098955;28;20034;-65
2023/02/26 02:08:47;;;;;;;1.42;0.30;;;;;;;2.05;67.39;101834.53;5095520;28;20024;-65
2023/02/26 02:11:13;;;;;;;2.25;0.40;;;;;;;2.01;67.34;101852.50;5097880;28;20042;-65
2023/02/26 02:13:58;;;;;;;3.38;0.57;;;;;;;2.05;67.02;101851.34;5096118;28;20562;-65
2023/02/26 02:16:36;;;;;;;3.35;0.47;;;;;;;2.00;67.72;101857.94;5094332;28;20244;-65
2023/02/26 02:19:17;;;;;;;1.10;0.28;;;;;;;2.02;67.60;101850.69;5091716;28;20059;-64
2023/02/26 02:21:55;;;;;;;4.93;0.50;;;;;;;2.05;67.39;101869.03;5093606;28;20023;-65
2023/02/26 02:24:39;;;;;;;2.13;0.50;;;;;;;1.93;67.71;101862.88;5094994;28;20035;-65
2023/02/26 02:27:37;;;;;;;3.40;0.45;;;;;;;1.86;68.78;101862.50;5095423;28;20093;-65
2023/02/26 02:30:09;;;;;;;2.15;0.38;;;;;;;1.75;69.10;101864.25;5050845;28;20040;-67
2023/02/26 02:32:48;;;;;;;1.00;0.30;;;;;;;1.69;69.16;101868.25;5094840;28;20052;-65
2023/02/26 02:35:23;;;;;;;1.58;0.35;;;;;;;1.30;69.62;101817.22;5091866;28;20032;-65
2023/02/26 02:37:59;;;;;;;1.27;0.40;;;;;;;1.77;68.98;101884.41;5096472;28;20066;-65
2023/02/26 02:40:29;;;;;;;2.50;0.45;;;;;;;1.78;69.70;101879.97;5096560;28;20020;-65
2023/02/26 02:43:09;;;;;;;4.28;0.30;;;;;;;1.59;69.93;101861.91;5097546;28;20024;-65
2023/02/26 02:45:41;;;;;;;1.80;0.40;;;;;;;1.93;69.25;101880.63;5091700;28;20030;-65
2023/02/26 02:48:28;;;;;;;2.00;0.45;;;;;;;1.97;69.27;101880.25;5104376;28;20050;-65
2023/02/26 02:51:04;;;;;;;2.38;0.30;;;;;;;2.04;69.83;101880.63;5106330;28;20020;-65
2023/02/26 02:53:35;;;;;;;1.70;0.60;;;;;;;1.99;70.96;101882.81;5096035;28;20028;-65
2023/02/26 02:56:10;;;;;;;2.22;0.40;;;;;;;2.08;70.48;101882.94;5100812;28;20077;-65
2023/02/26 02:58:41;;;;;;;1.95;0.50;;;;;;;2.01;71.38;101888.84;5099643;28;20032;-65
2023/02/26 03:01:10;;;;;;;1.75;0.40;;;;;;;2.05;71.26;101887.63;5097752;28;20035;-65
2023/02/26 03:03:40;;;;;;;2.63;1.10;;;;;;;2.08;71.05;101890.88;5097479;28;20032;-65
2023/02/26 03:06:06;;;;;;;2.60;0.47;;;;;;;2.19;70.77;101892.75;5094166;28;20146;-65
2023/02/26 03:08:37;;;;;;;2.08;0.40;;;;;;;2.17;70.42;101897.31;5100607;28;20049;-65
2023/02/26 03:11:03;;;;;;;2.78;0.60;;;;;;;2.17;70.85;101905.28;5107281;28;20311;-65
2023/02/26 03:13:28;;;;;;;2.50;0.50;;;;;;;1.97;71.24;101887.38;5098084;28;20031;-65
2023/02/26 03:15:57;;;;;;;3.78;0.45;;;;;;;1.97;71.76;101903.31;5080649;28;20044;-65
2023/02/26 03:18:47;;;;;;;0.40;0.28;;;;;;;2.06;71.78;101907.94;5099891;28;20020;-65
2023/02/26 03:21:38;;;;;;;1.63;0.30;;;;;;;2.00;72.06;101916.34;5100715;28;20028;-65
2023/02/26 03:24:22;;;;;;;3.72;0.50;;;;;;;2.16;71.03;101910.72;5100178;28;20060;-65
2023/02/26 03:27:23;;;;;;;3.35;0.45;;;;;;;2.04;71.48;101920.47;5099284;28;20024;-65
2023/02/26 03:30:08;;;;;;;3.53;0.60;;;;;;;1.97;72.23;101919.22;5097282;28;20494;-65
2023/02/26 03:32:59;;;;;;;2.17;0.50;;;;;;;1.73;72.83;101924.56;5113651;28;20035;-65
2023/02/26 03:35:33;;;;;;;2.75;0.52;;;;;;;1.81;73.37;101923.03;5101610;28;20028;-65
2023/02/26 03:38:04;;;;;;;1.13;0.40;;;;;;;1.73;72.11;101924.56;5098047;28;20036;-64
2023/02/26 03:40:55;;;;;;;1.20;0.45;;;;;;;1.80;72.86;101939.91;5097575;28;20036;-65
2023/02/26 03:43:40;;;;;;;2.75;0.60;;;;;;;1.83;73.10;101933.53;5096396;28;20395;-65
2023/02/26 03:46:08;;;;;;;;;;;;;;;1.81;72.61;101944.25;5101158;28;20100;-65
2023/02/26 03:48:35;;;;;;;2.08;0.60;;;;;;;1.64;73.83;101942.00;5101216;28;19982;-65
2023/02/26 03:51:09;;;;;;;3.75;0.63;;;;;;;1.65;73.84;101949.00;5099615;28;20024;-64
2023/02/26 03:53:46;;;;;;;2.58;0.43;;;;;;;1.79;73.60;101948.00;5101327;28;20024;-65
2023/02/26 03:56:29;;;;;;;2.78;0.60;;;;;;;1.60;74.66;101957.31;5103533;28;20016;-65
2023/02/26 03:58:55;;;;;;;1.77;0.30;;;;;;;1.61;74.33;101947.53;5110951;28;20103;-65
2023/02/26 04:01:27;;;;;;;1.65;0.55;;;;;;;1.59;74.83;101941.50;5100007;28;20022;-65
2023/02/26 04:03:59;;;;;;;1.17;0.30;;;;;;;1.78;74.16;101960.41;5099762;28;20031;-65
2023/02/26 04:06:25;;;;;;;1.35;0.30;;;;;;;1.76;74.10;101967.66;5101605;28;20050;-65
2023/02/26 04:08:51;;;;;;;1.50;0.40;;;;;;;1.62;74.01;101941.28;5100220;28;20512;-65
2023/02/26 04:11:19;;;;;;;2.67;0.60;;;;;;;1.75;74.12;101976.56;5096604;28;20085;-65
2023/02/26 04:13:46;;;;;;;2.75;0.45;;;;;;;1.87;73.04;101965.03;5099868;28;20519;-65
2023/02/26 04:16:12;;;;;;;2.47;0.40;;;;;;;2.09;72.64;101968.75;5100499;28;20338;-66
2023/02/26 04:18:38;;;;;;;2.10;0.57;;;;;;;1.96;72.44;101967.97;5100074;28;20050;-65
2023/02/26 04:21:03;;;;;;;3.08;0.65;;;;;;;2.10;72.43;101973.09;5099009;28;20111;-65
2023/02/26 04:23:29;;;;;;;3.38;0.45;;;;;;;1.86;73.10;101957.19;5100409;28;20032;-65
2023/02/26 04:25:55;;;;;;;3.08;0.63;;;;;;;1.89;73.55;101970.25;5100117;28;20024;-65
2023/02/26 04:28:20;;;;;;;4.28;0.70;;;;;;;2.03;72.68;101979.84;5099741;28;20028;-65
2023/02/26 04:30:46;;;;;;;1.83;0.40;;;;;;;1.83;72.62;101957.44;5096555;28;20039;-65
2023/02/26 04:33:13;;;;;;;1.40;0.35;;;;;;;2.04;71.94;101985.00;5099089;28;20048;-65
2023/02/26 04:35:39;;;;;;;2.38;0.60;;;;;;;1.81;73.12;101984.06;5097549;28;20028;-66
2023/02/26 04:38:04;;;;;;;1.67;0.55;;;;;;;1.72;73.46;102003.31;5082012;28;20073;-64
2023/02/26 04:40:30;;;;;;;5.22;0.60;;;;;;;1.95;72.79;101993.66;5082248;28;20032;-64
2023/02/26 04:42:56;;;;;;;3.47;0.60;;;;;;;1.79;72.25;102001.09;5099908;28;20156;-64
2023/02/26 04:45:21;;;;;;;2.42;0.52;;;;;;;1.94;71.95;101997.28;5098922;28;20409;-65
2023/02/26 04:47:47;;;;;;;1.77;0.40;;;;;;;2.02;71.59;101989.59;5099329;28;20042;-65
2023/02/26 04:50:12;;;;;;;3.42;0.43;;;;;;;2.09;71.15;101985.53;5098150;28;20044;-65
2023/02/26 04:52:38;;;;;;;3.63;0.50;;;;;;;2.06;70.85;101991.06;5098465;28;20096;-65
2023/02/26 04:55:06;;;;;;;2.42;0.38;;;;;;;1.91;71.86;101991.34;5081544;28;20142;-64
2023/02/26 04:57:31;;;;;;;4.47;0.50;;;;;;;1.96;71.76;101986.56;5098066;28;20066;-65
2023/02/26 04:59:57;;;;;;;1.95;0.35;;;;;;;1.95;71.36;101983.03;5098262;28;20054;-65
2023/02/26 05:02:22;;;;;;;1.70;0.32;;;;;;;2.01;71.24;101989.72;5098935;28;20024;-65
2023/02/26 05:04:48;;;;;;;1.75;0.32;;;;;;;2.05;71.81;102007.97;5111468;28;20179;-65
2023/02/26 05:07:13;;;;;;;1.65;0.30;;;;;;;1.86;72.64;102010.28;5100810;28;20379;-65
2023/02/26 05:09:38;;;;;;;2.47;0.45;;;;;;;1.98;72.11;102011.16;5081003;28;20708;-65
2023/02/26 05:12:04;;;;;;;2.65;0.52;;;;;;;1.98;71.61;102024.44;5099720;28;20024;-65
2023/02/26 05:14:29;;;;;;;3.72;0.73;;;;;;;2.02;71.79;102025.91;5098863;28;20036;-65
2023/02/26 05:16:55;;;;;;;2.60;0.57;;;;;;;1.94;72.83;102026.47;5096687;28;20054;-65
2023/02/26 05:19:20;;;;;;;1.60;0.43;;;;;;;2.08;72.44;102030.75;5097056;28;20063;-65
2023/02/26 05:21:48;;;;;;;4.72;0.45;;;;;;;2.00;73.08;102026.03;5097653;28;20028;-65
2023/02/26 05:24:13;;;;;;;5.25;1.08;;;;;;;1.83;72.90;102002.53;5096925;28;20081;-64
2023/02/26 05:26:39;;;;;;;2.88;0.60;;;;;;;1.98;73.88;102030.59;5098433;28;20666;-65
2023/02/26 05:29:05;;;;;;;1.52;0.50;;;;;;;2.07;73.19;102035.22;5096349;28;20486;-65
2023/02/26 05:31:31;;;;;;;2.15;0.50;;;;;;;1.93;73.17;102026.59;5097085;28;20039;-65
2023/02/26 05:33:56;;;;;;;2.83;0.50;;;;;;;2.04;73.34;102029.31;5095203;28;20028;-65
2023/02/26 05:36:22;;;;;;;2.38;0.50;;;;;;;1.92;73.53;102030.19;5093199;28;20573;-65
2023/02/26 05:38:47;;;;;;;1.23;0.30;;;;;;;2.03;73.36;102035.59;5097737;28;20028;-65
2023/02/26 05:41:13;;;;;;;3.00;0.60;;;;;;;1.96;73.62;102037.00;5097067;28;20076;-65
2023/02/26 05:43:38;;;;;;;2.90;0.70;;;;;;;1.82;73.89;102038.84;5097928;28;20016;-65
2023/02/26 05:46:04;;;;;;;1.02;0.50;;;;;;;1.80;74.48;102038.09;5101872;28;20028;-64
2023/02/26 05:48:30;;;;;;;3.72;0.75;;;;;;;1.85;74.11;102043.94;5102392;28;20028;-65
2023/02/26 05:50:55;;;;;;;3.97;0.60;;;;;;;1.86;73.85;102042.13;5103100;28;20024;-65
2023/02/26 05:53:21;;;;;;;3.42;0.60;;;;;;;1.90;73.04;102021.53;5103820;28;20028;-65
2023/02/26 05:55:47;;;;;;;2.90;0.43;;;;;;;1.98;73.78;102041.22;5097492;28;20083;-65
2023/02/26 05:58:12;;;;;;;3.10;0.60;;;;;;;1.94;73.53;102049.53;5095749;28;20106;-64
2023/02/26 06:00:37;;;;;;;1.38;0.30;;;;;;;1.82;73.61;102057.44;5097304;28;20031;-64
2023/02/26 06:03:03;;;;;;;2.25;0.57;;;;;;;1.79;73.82;102060.31;5096365;28;20028;-65
2023/02/26 06:05:30;;;;;;;2.15;0.40;;;;;;;1.73;73.56;102051.94;5096839;28;20028;-64
2023/02/26 06:07:55;;;;;;;3.75;0.50;;;;;;;1.67;73.90;102058.53;5096243;28;20023;-65
2023/02/26 06:10:20;;;;;;;2.58;0.40;;;;;;;1.87;72.83;102068.53;5103748;28;20044;-64
2023/02/26 06:12:46;;;;;;;2.85;0.50;;;;;;;1.79;72.54;102062.13;5106847;28;20031;-65
2023/02/26 06:15:11;;;;;;;2.08;0.50;;;;;;;1.85;72.92;102078.44;5096214;28;20098;-65
2023/02/26 06:17:38;;;;;;;2.30;0.60;;;;;;;1.83;73.27;102080.34;5098398;28;20023;-66
2023/02/26 06:20:04;;;;;;;1.38;0.50;;;;;;;1.82;73.32;102083.97;5097459;28;20056;-65
2023/02/26 06:22:29;;;;;;;1.85;0.40;;;;;;;1.74;73.87;102088.97;5095074;28;20067;-65
2023/02/26 06:24:55;;;;;;;1.60;0.63;;;;;;;1.59;74.60;102072.34;5074590;28;20102;-65
2023/02/26 06:27:21;;;;;;;3.30;0.60;;;;;;;1.78;74.38;102092.25;5076711;28;20036;-64
2023/02/26 06:29:47;;;;;;;2.53;0.60;;;;;;;1.67;74.95;102070.94;5075805;28;20119;-64
2023/02/26 06:32:12;;;;;;;3.08;0.50;;;;;;;1.69;74.81;102087.59;5057593;28;20059;-65
2023/02/26 06:34:38;;;;;;;3.63;0.60;;;;;;;1.83;74.39;102100.75;5084332;28;20390;-65
2023/02/26 06:37:04;;;;;;;3.15;0.85;;;;;;;1.84;74.34;102105.94;5094586;28;20028;-65
2023/02/26 06:39:29;;;;;;;2.38;0.50;;;;;;;1.81;74.81;102111.44;5095094;28;20028;-65
2023/02/26 06:41:55;;;;;;;4.32;0.60;;;;;;;1.84;74.99;102108.56;5095335;28;20109;-65
2023/02/26 06:44:20;;;;;;;2.65;0.60;;;;;;;1.69;75.62;102115.00;5096695;28;20028;-64
2023/02/26 06:46:45;;;;;;;3.65;0.70;;;;;;;1.62;75.64;102113.72;5096107;28;20040;-64
2023/02/26 06:49:11;;;;;;;6.10;0.50;;;;;;;1.75;75.37;102097.78;5098050;28;20046;-66
2023/02/26 06:51:37;;;;;;;3.55;0.60;;;;;;;1.90;75.09;102122.38;5097090;28;20034;-65
2023/02/26 06:54:02;;;;;;;6.18;1.25;;;;;;;1.52;75.50;102094.09;5097881;28;20027;-66
2023/02/26 06:56:28;;;;;;;1.88;0.40;;;;;;;1.72;75.37;102121.88;5095682;28;20050;-64
2023/02/26 06:58:53;;;;;;;4.93;0.52;;;;;;;1.80;75.04;102125.69;5095666;28;20044;-67
2023/02/26 07:01:19;;;;;;;2.40;0.40;;;;;;;1.79;75.23;102128.47;5090552;28;20028;-66
2023/02/26 07:03:44;;;;;;;5.35;0.60;;;;;;;1.79;75.13;102142.56;5093048;28;20059;-66
2023/02/26 07:06:11;;;;;;;2.17;0.73;;;;;;;1.86;75.56;102148.28;5096283;28;20036;-65
2023/02/26 07:08:37;;;;;;;2.25;0.50;;;;;;;1.83;75.51;102148.50;5074978;28;20119;-66
2023/02/26 07:11:03;;;;;;;2.50;0.50;;;;;;;1.99;74.87;102137.66;5076408;28;20028;-66
2023/02/26 07:13:28;;;;;;;2.17;0.60;;;;;;;1.67;75.60;102126.69;5092378;28;20032;-66
2023/02/26 07:15:54;;;;;;;2.67;0.40;;;;;;;1.79;75.57;102161.16;5075302;28;20113;-66
2023/02/26 07:18:19;;;;;;;2.08;0.45;;;;;;;1.88;75.85;102164.94;5081495;28;20119;-65
2023/02/26 07:20:48;;;;;;;1.70;0.47;;;;;;;1.67;76.24;102158.50;5083812;28;20056;-66
2023/02/26 07:23:14;;;;;;;1.90;0.40;;;;;;;1.75;76.07;102156.16;5078123;28;20074;-66
2023/02/26 07:25:39;;;;;;;3.58;0.60;;;;;;;1.80;75.58;102154.03;5096015;28;20425;-65
2023/02/26 07:28:04;;;;;;;1.10;0.50;;;;;;;1.95;74.79;102171.50;5095479;28;20023;-67
2023/02/26 07:30:30;;;;;;;2.05;0.38;;;;;;;1.99;74.40;102175.66;5078401;28;20059;-66
2023/02/26 07:32:56;;;;;;;2.58;0.50;;;;;;;1.94;74.96;102177.78;5096654;28;20024;-66
2023/02/26 07:35:21;;;;;;;2.60;0.60;;;;;;;1.94;75.26;102180.44;5095836;28;20019;-65
2023/02/26 07:37:47;;;;;;;5.32;0.90;;;;;;;2.15;74.16;102180.69;5097690;28;20042;-66
2023/02/26 07:40:12;;;;;;;1.73;0.60;;;;;;;2.04;74.69;102181.47;5095979;28;20024;-66
2023/02/26 07:42:39;;;;;;;3.97;0.80;;;;;;;2.18;73.80;102188.44;5095995;28;20035;-66
2023/02/26 07:45:05;;;;;;;3.25;0.60;;;;;;;2.20;73.65;102178.56;5096310;28;20062;-66
2023/02/26 07:47:30;;;;;;;1.92;0.43;;;;;;;2.43;73.39;102186.69;5095453;28;20119;-66
2023/02/26 07:49:56;;;;;;;2.30;0.60;;;;;;;2.34;73.12;102151.84;5094812;28;20064;-66
2023/02/26 07:52:22;;;;;;;4.50;0.80;;;;;;;2.73;71.90;102186.22;5097579;28;20042;-65
2023/02/26 07:54:47;;;;;;;3.50;0.90;;;;;;;2.70;72.08;102187.28;5098640;28;20085;-65
2023/02/26 07:57:12;;;;;;;2.80;0.50;;;;;;;2.78;71.56;102194.69;5098434;28;20315;-66
2023/02/26 07:59:38;;;;;;;1.73;0.50;;;;;;;2.58;71.98;102199.69;5095590;28;20151;-66
2023/02/26 08:02:05;;;;;;;2.22;0.60;;;;;;;2.54;71.81;102202.66;5097447;28;20028;-66
2023/02/26 08:04:31;;;;;;;1.67;0.50;;;;;;;2.55;71.13;102194.59;5099813;28;20016;-65
2023/02/26 08:06:58;;;;;;;3.08;0.55;;;;;;;2.52;70.52;102205.47;5102096;28;20031;-66
2023/02/26 08:09:24;;;;;;;3.05;0.50;;;;;;;2.71;70.60;102193.47;5095345;28;20032;-66
2023/02/26 08:11:50;;;;;;;3.42;0.68;;;;;;;2.91;70.21;102218.56;5080026;28;20032;-67
2023/02/26 08:14:15;;;;;;;2.42;0.88;;;;;;;2.95;70.31;102217.38;5096611;28;20028;-66
2023/02/26 08:16:41;;;;;;;3.72;0.88;;;;;;;3.16;69.68;102213.09;5099010;28;20110;-67
2023/02/26 08:19:06;;;;;;;2.70;0.70;;;;;;;3.13;69.57;102218.66;5098097;28;20079;-66
2023/02/26 08:21:32;;;;;;;3.40;0.60;;;;;;;3.15;69.24;102216.72;5099677;28;20289;-67
2023/02/26 08:23:59;;;;;;;2.58;0.50;;;;;;;2.98;69.24;102191.41;5095789;28;20101;-67
2023/02/26 08:26:24;;;;;;;2.65;0.60;;;;;;;2.91;68.79;102195.47;5097755;28;20024;-67
2023/02/26 08:28:50;;;;;;;3.92;0.70;;;;;;;2.99;68.28;102208.22;5095418;28;20478;-66
2023/02/26 08:31:16;;;;;;;2.95;0.43;;;;;;;3.27;67.31;102226.41;5096863;28;20085;-67
2023/02/26 08:33:42;;;;;;;2.40;0.45;;;;;;;3.33;67.92;102221.59;5098440;28;20028;-67
2023/02/26 08:36:08;;;;;;;2.88;0.60;;;;;;;3.27;66.35;102223.75;5097478;28;20487;-67
2023/02/26 08:38:33;;;;;;;2.20;0.70;;;;;;;3.66;66.52;102216.34;5098365;28;20028;-66
2023/02/26 08:40:59;;;;;;;0.98;0.30;;;;;;;3.65;66.56;102219.13;5097055;28;20024;-67
2023/02/26 08:43:25;;;;;;;1.98;0.55;;;;;;;3.53;66.56;102234.22;5097477;28;20482;-67
2023/02/26 08:45:55;;;;;;;3.42;0.60;;;;;;;3.89;66.43;102238.50;5098863;28;20028;-67
2023/02/26 08:48:21;;;;;;;3.10;0.50;;;;;;;4.00;66.08;102237.66;5095427;28;20043;-67
2023/02/26 08:50:47;;;;;;;1.70;0.57;;;;;;;3.90;65.21;102242.84;5106275;28;20411;-67
2023/02/26 08:53:13;;;;;;;3.47;0.57;;;;;;;3.91;65.19;102233.91;5103711;28;20031;-67
2023/02/26 08:55:38;;;;;;;1.92;0.40;;;;;;;3.96;65.23;102244.19;5097422;28;20036;-67
2023/02/26 08:58:04;;;;;;;2.70;0.50;;;;;;;3.83;65.53;102219.50;5081292;28;20038;-67
2023/02/26 09:00:30;;;;;;;1.85;0.60;;;;;;;3.91;64.41;102225.94;5097955;28;20044;-67
2023/02/26 09:02:55;;;;;;;1.80;0.50;;;;;;;4.02;64.49;102230.41;5098176;28;20127;-67
2023/02/26 09:05:21;;;;;;;2.13;0.60;;;;;;;4.21;63.92;102251.97;5097605;28;20028;-67
2023/02/26 09:07:46;;;;;;;2.38;0.65;;;;;;;3.95;64.30;102223.88;5096555;28;20114;-67
2023/02/26 09:10:13;;;;;;;1.90;0.52;;;;;;;4.03;63.41;102252.56;5096695;28;20375;-67
2023/02/26 09:12:39;;;;;;;2.95;0.30;;;;;;;4.19;63.50;102248.56;5097708;28;20028;-67
2023/02/26 09:15:07;;;;;;;1.80;0.40;;;;;;;4.30;61.92;102270.84;5097489;28;20107;-66
2023/02/26 09:17:33;;;;;;;3.33;0.88;;;;;;;4.45;62.86;102253.63;5097143;28;20028;-66
2023/02/26 09:19:58;;;;;;;1.45;0.50;;;;;;;4.54;62.58;102266.22;5098011;28;20055;-66
2023/02/26 09:22:24;;;;;;;1.92;0.50;;;;;;;4.55;62.13;102270.56;5097000;28;20048;-66
2023/02/26 09:24:50;;;;;;;4.30;0.60;;;;;;;4.60;61.78;102273.72;5097447;28;20028;-66
2023/02/26 09:27:15;;;;;;;3.72;0.98;;;;;;;4.48;62.18;102280.03;5096250;28;20032;-66
2023/02/26 09:29:41;;;;;;;1.55;0.63;;;;;;;4.57;62.31;102273.97;5096151;28;20130;-66
2023/02/26 09:32:07;;;;;;;1.85;0.80;;;;;;;4.70;61.97;102276.47;5097734;28;20395;-66
2023/02/26 09:34:37;;;;;;;3.40;1.10;;;;;;;4.88;61.97;102279.47;5096222;28;20028;-67
2023/02/26 09:37:04;;;;;;;2.22;0.70;;;;;;;4.69;61.49;102261.44;5096047;28;20032;-67
2023/02/26 09:39:29;;;;;;;2.05;0.70;;;;;;;4.92;62.21;102289.75;5095260;28;20619;-66
2023/02/26 09:41:59;;;;;;;5.47;1.02;;;;;;;4.76;61.29;102296.47;5097280;28;20031;-67
2023/02/26 09:44:27;;;;;;;3.70;1.05;;;;;;;4.71;61.72;102302.19;5096268;28;20429;-69
2023/02/26 09:46:52;;;;;;;2.67;1.00;;;;;;;4.42;61.84;102302.69;5097262;28;20096;-69
2023/02/26 09:49:44;;;;;;;5.20;1.30;;;;;;;4.72;61.40;102303.88;5096846;28;20039;-68
2023/02/26 09:52:12;;;;;;;3.08;1.10;;;;;;;4.74;61.53;102303.75;5071366;28;20047;-68
2023/02/26 09:54:45;;;;;;;6.00;1.02;;;;;;;4.73;61.71;102310.88;5092528;28;20031;-68
2023/02/26 09:57:20;;;;;;;1.48;0.80;;;;;;;4.84;61.22;102302.88;5096549;28;20031;-69
2023/02/26 09:59:46;;;;;;;2.92;0.90;;;;;;;4.89;60.64;102305.16;5093908;28;20020;-67
2023/02/26 10:02:21;;;;;;;2.90;0.93;;;;;;;4.93;60.88;102301.25;5091206;28;20060;-68
2023/02/26 10:05:06;;;;;;;;;;;;;;;4.76;60.75;102315.13;5094937;28;20340;-69
2023/02/26 10:07:58;;;;;;;3.38;1.10;;;;;;;4.69;60.89;102307.63;5095556;28;19916;-69
2023/02/26 10:10:40;;;;;;;3.78;1.35;;;;;;;4.76;60.46;102309.78;5095117;28;20052;-68
2023/02/26 10:13:19;;;;;;;4.95;1.70;;;;;;;4.96;59.89;102311.69;5114181;28;20494;-69
2023/02/26 10:15:49;;;;;;;4.50;1.25;;;;;;;4.94;60.04;102309.16;5114705;28;20055;-69
2023/02/26 10:18:17;;;;;;;2.95;0.95;;;;;;;5.01;60.10;102303.31;5115549;28;20127;-69
2023/02/26 10:21:00;;;;;;;5.53;1.90;;;;;;;4.95;58.80;102304.66;5116951;28;20066;-69
2023/02/26 10:23:47;;;;;;;4.35;1.20;;;;;;;5.28;59.22;102305.53;5115016;28;20028;-69
2023/02/26 10:26:18;;;;;;;2.92;1.20;;;;;;;5.06;58.21;102298.44;5116555;28;20038;-67
2023/02/26 10:29:05;;;;;;;2.97;1.13;;;;;;;5.05;59.14;102300.25;5116842;28;20019;-68
2023/02/26 10:31:50;;;;;;;3.58;1.10;;;;;;;5.30;58.34;102311.59;5114997;28;20055;-69
2023/02/26 10:34:36;;;;;;;4.60;1.15;;;;;;;5.19;59.22;102307.97;5105457;28;20091;-68
2023/02/26 10:37:23;;;;;;;4.25;1.13;;;;;;;5.34;58.95;102321.88;5116712;28;20071;-68
2023/02/26 10:40:22;;;;;;;2.95;1.05;;;;;;;5.30;58.58;102320.44;5116874;28;20084;-68
2023/02/26 10:42:56;;;;;;;2.10;0.85;;;;;;;5.45;59.28;102301.44;5115379;28;20114;-68
2023/02/26 10:45:35;;;;;;;10.60;1.27;;;;;;;5.36;58.30;102279.91;5116384;28;20031;-68
2023/02/26 10:48:29;;;;;;;4.25;1.30;;;;;;;5.59;57.92;102312.63;5102567;28;20571;-68
2023/02/26 10:50:59;;;;;;;4.72;1.20;;;;;;;5.63;59.37;102322.09;5095903;28;20096;-68
2023/02/26 10:53:27;;;;;;;6.13;1.38;;;;;;;5.51;58.55;102290.25;5095644;28;20020;-69
2023/02/26 10:56:24;;;;;;;4.07;1.50;;;;;;;5.62;57.83;102311.53;5097353;28;20021;-68
2023/02/26 10:58:51;;;;;;;4.18;1.13;;;;;;;5.68;58.00;102324.38;5096806;28;20036;-68
2023/02/26 11:01:19;;;;;;;3.05;1.00;;;;;;;5.92;57.54;102316.09;5094894;28;20096;-67
2023/02/26 11:03:48;;;;;;;3.20;0.88;;;;;;;5.94;58.12;102326.69;5093411;28;20114;-68
2023/02/26 11:06:21;;;;;;;1.80;0.90;;;;;;;5.92;58.70;102332.13;5094383;28;20367;-67
2023/02/26 11:08:51;;;;;;;5.32;1.08;;;;;;;5.81;58.49;102330.38;5093741;28;20020;-68
2023/02/26 11:11:35;;;;;;;3.88;1.38;;;;;;;5.92;58.19;102334.78;5093474;28;20028;-67
2023/02/26 11:14:00;;;;;;;3.95;1.20;;;;;;;5.74;56.78;102331.03;5095124;28;20028;-68
2023/02/26 11:16:26;;;;;;;5.82;1.45;;;;;;;5.80;57.62;102338.53;5077705;28;20064;-68
2023/02/26 11:18:58;;;;;;;3.28;0.85;;;;;;;6.09;57.10;102349.41;5093354;28;20056;-68
2023/02/26 11:21:32;;;;;;;5.70;1.20;;;;;;;5.85;57.77;102321.13;5091539;28;20078;-65
2023/02/26 11:24:03;;;;;;;9.13;1.20;;;;;;;5.68;58.06;102315.53;5095462;28;20024;-66
2023/02/26 11:26:33;;;;;;;3.97;0.98;;;;;;;5.80;57.11;102339.38;5095364;28;20043;-65
2023/02/26 11:28:59;;;;;;;4.75;1.48;;;;;;;5.83;56.94;102327.59;5093855;28;20028;-65
2023/02/26 11:31:25;;;;;;;3.92;0.82;;;;;;;6.05;56.20;102310.56;5095440;28;20055;-66
2023/02/26 11:34:07;;;;;;;3.17;1.13;;;;;;;5.78;54.58;102327.13;5095081;28;20028;-67
2023/02/26 11:36:36;;;;;;;6.18;1.25;;;;;;;5.92;55.69;102332.13;5095024;28;20064;-66
2023/02/26 11:39:18;;;;;;;4.43;1.00;;;;;;;6.02;55.30;102313.50;5094718;28;20065;-65
2023/02/26 11:41:46;;;;;;;3.13;1.02;;;;;;;5.76;54.55;102321.03;5099944;28;20027;-65
2023/02/26 11:44:29;;;;;;;3.88;0.90;;;;;;;6.11;54.38;102326.94;5099191;28;20403;-66
2023/02/26 11:46:56;;;;;;;7.25;1.40;;;;;;;5.91;53.96;102301.06;5098444;28;20027;-66
2023/02/26 11:49:26;;;;;;;3.90;1.00;;;;;;;6.17;54.07;102325.56;5098196;28;20519;-67